Weather search by city/station or by Location Indicator (LI)

Please do one of the following:
a) Search the weather station by station, city or country name and click Search button
b) Enter the four-character Location Indicator (i.e. EFHK = Helsinki) and click Submit button

a) Search the station:   

b) Location Indicator:  

The ICAO Location Indicator code is explained here.

METAR = EFHK 141050Z VRB06KT 9999 FEW018 BKN022 19/14 Q1015 NOSIG

STATIONEFHK
NAMEHelsinki/Vantaa Arpt, --, FI
OBSERVED14.08.2020 13:50 (14.08.2020 10:50 UTC), 23 min ago
TEMPERATURE19.0°C ( 66°F)
WINDvariable direction winds at 7 MPH (6 knots; 3.1 m/s)
HUMIDITY73%
PRESSURE1014.9 hPa